sensor_id;sensor_type;location;lat;lon;timestamp;P1;durP1;ratioP1;P2;durP2;ratioP2
33902;SDS011;20194;50.950;5.346;2024-03-06T00:01:47;5.32;;;4.00;;
33902;SDS011;20194;50.950;5.346;2024-03-06T00:04:13;7.50;;;4.10;;
33902;SDS011;20194;50.950;5.346;2024-03-06T00:06:39;6.70;;;4.32;;
33902;SDS011;20194;50.950;5.346;2024-03-06T00:09:04;9.05;;;4.65;;
33902;SDS011;20194;50.950;5.346;2024-03-06T00:11:30;6.80;;;4.25;;
33902;SDS011;20194;50.950;5.346;2024-03-06T00:13:56;6.53;;;4.30;;
33902;SDS011;20194;50.950;5.346;2024-03-06T00:16:21;7.47;;;4.25;;
33902;SDS011;20194;50.950;5.346;2024-03-06T00:18:47;7.88;;;4.30;;
33902;SDS011;20194;50.950;5.346;2024-03-06T00:21:13;6.57;;;4.88;;
33902;SDS011;20194;50.950;5.346;2024-03-06T00:23:38;8.07;;;4.40;;
33902;SDS011;20194;50.950;5.346;2024-03-06T00:26:04;9.35;;;4.35;;
33902;SDS011;20194;50.950;5.346;2024-03-06T00:28:30;9.07;;;4.18;;
33902;SDS011;20194;50.950;5.346;2024-03-06T00:30:56;6.53;;;4.53;;
33902;SDS011;20194;50.950;5.346;2024-03-06T00:33:23;6.15;;;4.32;;
33902;SDS011;20194;50.950;5.346;2024-03-06T00:35:48;6.32;;;3.97;;
33902;SDS011;20194;50.950;5.346;2024-03-06T00:38:15;8.20;;;4.50;;
33902;SDS011;20194;50.950;5.346;2024-03-06T00:40:41;8.57;;;4.47;;
33902;SDS011;20194;50.950;5.346;2024-03-06T00:43:06;5.95;;;4.43;;
33902;SDS011;20194;50.950;5.346;2024-03-06T00:45:32;7.13;;;4.78;;
33902;SDS011;20194;50.950;5.346;2024-03-06T00:47:58;9.65;;;5.22;;
33902;SDS011;20194;50.950;5.346;2024-03-06T00:50:23;7.68;;;5.07;;
33902;SDS011;20194;50.950;5.346;2024-03-06T00:52:49;12.90;;;5.18;;
33902;SDS011;20194;50.950;5.346;2024-03-06T00:55:15;6.80;;;4.38;;
33902;SDS011;20194;50.950;5.346;2024-03-06T00:57:41;7.55;;;5.00;;
33902;SDS011;20194;50.950;5.346;2024-03-06T01:00:07;7.03;;;4.90;;
33902;SDS011;20194;50.950;5.346;2024-03-06T01:02:36;8.98;;;5.22;;
33902;SDS011;20194;50.950;5.346;2024-03-06T01:05:02;7.25;;;5.03;;
33902;SDS011;20194;50.950;5.346;2024-03-06T01:07:32;7.47;;;5.03;;
33902;SDS011;20194;50.950;5.346;2024-03-06T01:09:58;9.25;;;4.85;;
33902;SDS011;20194;50.950;5.346;2024-03-06T01:12:24;6.85;;;4.78;;
33902;SDS011;20194;50.950;5.346;2024-03-06T01:14:51;6.75;;;4.60;;
33902;SDS011;20194;50.950;5.346;2024-03-06T01:17:16;7.85;;;5.05;;
33902;SDS011;20194;50.950;5.346;2024-03-06T01:19:42;21.67;;;6.38;;
33902;SDS011;20194;50.950;5.346;2024-03-06T01:22:08;8.13;;;5.13;;
33902;SDS011;20194;50.950;5.346;2024-03-06T01:24:34;9.52;;;4.93;;
33902;SDS011;20194;50.950;5.346;2024-03-06T01:27:00;6.45;;;4.32;;
33902;SDS011;20194;50.950;5.346;2024-03-06T01:29:28;7.15;;;4.50;;
33902;SDS011;20194;50.950;5.346;2024-03-06T01:31:54;7.47;;;4.47;;
33902;SDS011;20194;50.950;5.346;2024-03-06T01:34:19;5.80;;;4.65;;
33902;SDS011;20194;50.950;5.346;2024-03-06T01:36:45;6.05;;;4.40;;
33902;SDS011;20194;50.950;5.346;2024-03-06T01:39:11;8.00;;;4.38;;
33902;SDS011;20194;50.950;5.346;2024-03-06T01:41:37;5.88;;;4.63;;
33902;SDS011;20194;50.950;5.346;2024-03-06T01:44:09;7.25;;;4.88;;
33902;SDS011;20194;50.950;5.346;2024-03-06T01:46:34;9.57;;;5.50;;
33902;SDS011;20194;50.950;5.346;2024-03-06T01:49:00;12.18;;;4.78;;
33902;SDS011;20194;50.950;5.346;2024-03-06T01:51:26;9.40;;;5.00;;
33902;SDS011;20194;50.950;5.346;2024-03-06T01:53:51;8.15;;;5.15;;
33902;SDS011;20194;50.950;5.346;2024-03-06T01:56:17;8.00;;;5.07;;
33902;SDS011;20194;50.950;5.346;2024-03-06T01:58:44;10.90;;;5.97;;
33902;SDS011;20194;50.950;5.346;2024-03-06T02:01:11;8.35;;;5.78;;
33902;SDS011;20194;50.950;5.346;2024-03-06T02:03:38;9.55;;;5.35;;
33902;SDS011;20194;50.950;5.346;2024-03-06T02:06:04;11.20;;;6.30;;
33902;SDS011;20194;50.950;5.346;2024-03-06T02:08:31;8.80;;;5.40;;
33902;SDS011;20194;50.950;5.346;2024-03-06T02:10:57;9.60;;;6.10;;
33902;SDS011;20194;50.950;5.346;2024-03-06T02:13:27;8.85;;;5.60;;
33902;SDS011;20194;50.950;5.346;2024-03-06T02:15:52;8.15;;;5.80;;
33902;SDS011;20194;50.950;5.346;2024-03-06T02:18:18;9.30;;;5.97;;
33902;SDS011;20194;50.950;5.346;2024-03-06T02:20:44;9.50;;;5.95;;
33902;SDS011;20194;50.950;5.346;2024-03-06T02:23:11;8.75;;;5.70;;
33902;SDS011;20194;50.950;5.346;2024-03-06T02:25:36;8.27;;;5.40;;
33902;SDS011;20194;50.950;5.346;2024-03-06T02:28:02;9.23;;;5.15;;
33902;SDS011;20194;50.950;5.346;2024-03-06T02:30:28;10.50;;;4.60;;
33902;SDS011;20194;50.950;5.346;2024-03-06T02:32:55;6.30;;;4.53;;
33902;SDS011;20194;50.950;5.346;2024-03-06T02:35:22;8.73;;;4.82;;
33902;SDS011;20194;50.950;5.346;2024-03-06T02:37:48;10.65;;;5.07;;
33902;SDS011;20194;50.950;5.346;2024-03-06T02:40:13;9.05;;;5.07;;
33902;SDS011;20194;50.950;5.346;2024-03-06T02:42:39;8.73;;;4.60;;
33902;SDS011;20194;50.950;5.346;2024-03-06T02:45:05;7.75;;;4.80;;
33902;SDS011;20194;50.950;5.346;2024-03-06T02:47:34;9.77;;;4.53;;
33902;SDS011;20194;50.950;5.346;2024-03-06T02:50:00;14.23;;;5.63;;
33902;SDS011;20194;50.950;5.346;2024-03-06T02:52:26;12.55;;;5.20;;
33902;SDS011;20194;50.950;5.346;2024-03-06T02:54:51;9.25;;;4.47;;
33902;SDS011;20194;50.950;5.346;2024-03-06T02:57:17;7.47;;;4.93;;
33902;SDS011;20194;50.950;5.346;2024-03-06T02:59:42;14.05;;;6.50;;
33902;SDS011;20194;50.950;5.346;2024-03-06T03:02:09;8.25;;;4.38;;
33902;SDS011;20194;50.950;5.346;2024-03-06T03:04:35;7.47;;;4.57;;
33902;SDS011;20194;50.950;5.346;2024-03-06T03:07:01;8.98;;;5.40;;
33902;SDS011;20194;50.950;5.346;2024-03-06T03:09:26;12.95;;;5.53;;
33902;SDS011;20194;50.950;5.346;2024-03-06T03:11:53;8.50;;;4.80;;
33902;SDS011;20194;50.950;5.346;2024-03-06T03:14:19;6.45;;;4.25;;
33902;SDS011;20194;50.950;5.346;2024-03-06T03:16:44;6.05;;;4.85;;
33902;SDS011;20194;50.950;5.346;2024-03-06T03:19:10;8.18;;;5.05;;
33902;SDS011;20194;50.950;5.346;2024-03-06T03:21:36;6.82;;;4.40;;
33902;SDS011;20194;50.950;5.346;2024-03-06T03:24:01;8.48;;;5.05;;
33902;SDS011;20194;50.950;5.346;2024-03-06T03:26:28;6.20;;;4.88;;
33902;SDS011;20194;50.950;5.346;2024-03-06T03:28:53;10.35;;;5.13;;
33902;SDS011;20194;50.950;5.346;2024-03-06T03:31:20;9.13;;;5.32;;
33902;SDS011;20194;50.950;5.346;2024-03-06T03:33:46;10.15;;;5.32;;
33902;SDS011;20194;50.950;5.346;2024-03-06T03:36:13;9.07;;;4.97;;
33902;SDS011;20194;50.950;5.346;2024-03-06T03:38:39;7.57;;;5.22;;
33902;SDS011;20194;50.950;5.346;2024-03-06T03:41:08;7.93;;;4.95;;
33902;SDS011;20194;50.950;5.346;2024-03-06T03:43:34;9.65;;;5.05;;
33902;SDS011;20194;50.950;5.346;2024-03-06T03:46:00;8.32;;;5.10;;
33902;SDS011;20194;50.950;5.346;2024-03-06T03:48:26;8.55;;;5.10;;
33902;SDS011;20194;50.950;5.346;2024-03-06T03:50:51;13.05;;;4.95;;
33902;SDS011;20194;50.950;5.346;2024-03-06T03:53:17;10.02;;;5.40;;
33902;SDS011;20194;50.950;5.346;2024-03-06T03:55:43;9.18;;;5.05;;
33902;SDS011;20194;50.950;5.346;2024-03-06T03:58:09;11.30;;;5.65;;
33902;SDS011;20194;50.950;5.346;2024-03-06T04:00:35;8.95;;;5.78;;
33902;SDS011;20194;50.950;5.346;2024-03-06T04:03:00;8.88;;;6.00;;
33902;SDS011;20194;50.950;5.346;2024-03-06T04:05:27;12.15;;;5.93;;
33902;SDS011;20194;50.950;5.346;2024-03-06T04:07:53;9.88;;;5.75;;
33902;SDS011;20194;50.950;5.346;2024-03-06T04:10:19;10.00;;;6.55;;
33902;SDS011;20194;50.950;5.346;2024-03-06T04:12:44;10.68;;;6.10;;
33902;SDS011;20194;50.950;5.346;2024-03-06T04:15:10;11.45;;;5.65;;
33902;SDS011;20194;50.950;5.346;2024-03-06T04:17:36;12.30;;;6.18;;
33902;SDS011;20194;50.950;5.346;2024-03-06T04:20:01;10.02;;;6.00;;
33902;SDS011;20194;50.950;5.346;2024-03-06T04:22:29;11.32;;;6.68;;
33902;SDS011;20194;50.950;5.346;2024-03-06T04:24:55;9.77;;;6.15;;
33902;SDS011;20194;50.950;5.346;2024-03-06T04:27:23;11.40;;;6.15;;
33902;SDS011;20194;50.950;5.346;2024-03-06T04:29:49;13.00;;;6.85;;
33902;SDS011;20194;50.950;5.346;2024-03-06T04:32:14;13.82;;;6.30;;
33902;SDS011;20194;50.950;5.346;2024-03-06T04:34:41;10.70;;;5.85;;
33902;SDS011;20194;50.950;5.346;2024-03-06T04:37:06;9.02;;;6.50;;
33902;SDS011;20194;50.950;5.346;2024-03-06T04:39:32;9.90;;;6.22;;
33902;SDS011;20194;50.950;5.346;2024-03-06T04:41:58;12.70;;;5.43;;
33902;SDS011;20194;50.950;5.346;2024-03-06T04:44:23;8.25;;;5.65;;
33902;SDS011;20194;50.950;5.346;2024-03-06T04:46:49;14.35;;;6.32;;
33902;SDS011;20194;50.950;5.346;2024-03-06T04:49:15;6.28;;;5.00;;
33902;SDS011;20194;50.950;5.346;2024-03-06T04:51:41;8.88;;;5.70;;
33902;SDS011;20194;50.950;5.346;2024-03-06T04:54:07;12.98;;;6.38;;
33902;SDS011;20194;50.950;5.346;2024-03-06T04:56:33;11.15;;;5.50;;
33902;SDS011;20194;50.950;5.346;2024-03-06T04:58:59;12.80;;;6.03;;
33902;SDS011;20194;50.950;5.346;2024-03-06T05:01:28;7.05;;;5.85;;
33902;SDS011;20194;50.950;5.346;2024-03-06T05:03:55;11.73;;;5.97;;
33902;SDS011;20194;50.950;5.346;2024-03-06T05:06:22;8.60;;;5.50;;
33902;SDS011;20194;50.950;5.346;2024-03-06T05:08:48;9.27;;;5.15;;
33902;SDS011;20194;50.950;5.346;2024-03-06T05:11:14;10.65;;;5.95;;
33902;SDS011;20194;50.950;5.346;2024-03-06T05:13:40;10.00;;;6.05;;
33902;SDS011;20194;50.950;5.346;2024-03-06T05:16:06;12.40;;;5.43;;
33902;SDS011;20194;50.950;5.346;2024-03-06T05:18:34;11.25;;;6.32;;
33902;SDS011;20194;50.950;5.346;2024-03-06T05:21:00;11.88;;;5.85;;
33902;SDS011;20194;50.950;5.346;2024-03-06T05:23:26;9.00;;;6.18;;
33902;SDS011;20194;50.950;5.346;2024-03-06T05:25:52;24.90;;;5.70;;
33902;SDS011;20194;50.950;5.346;2024-03-06T05:28:17;10.50;;;5.60;;
33902;SDS011;20194;50.950;5.346;2024-03-06T05:30:43;16.30;;;5.65;;
33902;SDS011;20194;50.950;5.346;2024-03-06T05:33:09;10.35;;;5.53;;
33902;SDS011;20194;50.950;5.346;2024-03-06T05:35:35;12.18;;;6.22;;
33902;SDS011;20194;50.950;5.346;2024-03-06T05:38:01;8.77;;;5.57;;
33902;SDS011;20194;50.950;5.346;2024-03-06T05:40:28;10.27;;;5.40;;
33902;SDS011;20194;50.950;5.346;2024-03-06T05:42:54;10.77;;;6.10;;
33902;SDS011;20194;50.950;5.346;2024-03-06T05:45:20;6.82;;;5.15;;
33902;SDS011;20194;50.950;5.346;2024-03-06T05:47:45;13.65;;;5.95;;
33902;SDS011;20194;50.950;5.346;2024-03-06T05:50:12;13.38;;;5.40;;
33902;SDS011;20194;50.950;5.346;2024-03-06T05:52:38;10.98;;;5.90;;
33902;SDS011;20194;50.950;5.346;2024-03-06T05:55:04;12.18;;;6.63;;
33902;SDS011;20194;50.950;5.346;2024-03-06T05:57:31;11.25;;;5.80;;
33902;SDS011;20194;50.950;5.346;2024-03-06T05:59:57;17.08;;;6.80;;
33902;SDS011;20194;50.950;5.346;2024-03-06T06:02:23;9.38;;;6.00;;
33902;SDS011;20194;50.950;5.346;2024-03-06T06:04:49;10.40;;;6.30;;
33902;SDS011;20194;50.950;5.346;2024-03-06T06:07:14;11.55;;;6.15;;
33902;SDS011;20194;50.950;5.346;2024-03-06T06:09:40;7.97;;;5.95;;
33902;SDS011;20194;50.950;5.346;2024-03-06T06:12:06;15.88;;;6.72;;
33902;SDS011;20194;50.950;5.346;2024-03-06T06:14:32;14.40;;;6.88;;
33902;SDS011;20194;50.950;5.346;2024-03-06T06:16:57;11.48;;;7.72;;
33902;SDS011;20194;50.950;5.346;2024-03-06T06:19:23;12.90;;;7.22;;
33902;SDS011;20194;50.950;5.346;2024-03-06T06:21:49;9.68;;;6.35;;
33902;SDS011;20194;50.950;5.346;2024-03-06T06:24:16;10.80;;;6.63;;
33902;SDS011;20194;50.950;5.346;2024-03-06T06:26:42;9.88;;;6.70;;
33902;SDS011;20194;50.950;5.346;2024-03-06T06:29:07;13.32;;;7.60;;
33902;SDS011;20194;50.950;5.346;2024-03-06T06:31:33;11.23;;;7.30;;
33902;SDS011;20194;50.950;5.346;2024-03-06T06:33:59;15.25;;;6.80;;
33902;SDS011;20194;50.950;5.346;2024-03-06T06:36:25;12.55;;;6.65;;
33902;SDS011;20194;50.950;5.346;2024-03-06T06:38:52;15.82;;;7.35;;
33902;SDS011;20194;50.950;5.346;2024-03-06T06:41:19;11.70;;;6.97;;
33902;SDS011;20194;50.950;5.346;2024-03-06T06:43:45;13.93;;;7.40;;
33902;SDS011;20194;50.950;5.346;2024-03-06T06:46:11;12.30;;;6.78;;
33902;SDS011;20194;50.950;5.346;2024-03-06T06:48:36;15.00;;;7.15;;
33902;SDS011;20194;50.950;5.346;2024-03-06T06:51:02;10.32;;;6.93;;
33902;SDS011;20194;50.950;5.346;2024-03-06T06:53:31;17.33;;;7.50;;
33902;SDS011;20194;50.950;5.346;2024-03-06T06:55:57;13.35;;;7.30;;
33902;SDS011;20194;50.950;5.346;2024-03-06T06:58:23;12.65;;;6.88;;
33902;SDS011;20194;50.950;5.346;2024-03-06T07:00:49;17.58;;;6.90;;
33902;SDS011;20194;50.950;5.346;2024-03-06T07:03:16;11.13;;;7.35;;
33902;SDS011;20194;50.950;5.346;2024-03-06T07:05:42;9.75;;;6.75;;
33902;SDS011;20194;50.950;5.346;2024-03-06T07:08:07;10.52;;;6.50;;
33902;SDS011;20194;50.950;5.346;2024-03-06T07:10:33;13.50;;;6.85;;
33902;SDS011;20194;50.950;5.346;2024-03-06T07:13:01;17.05;;;6.97;;
33902;SDS011;20194;50.950;5.346;2024-03-06T07:15:27;11.07;;;7.35;;
33902;SDS011;20194;50.950;5.346;2024-03-06T07:17:53;9.55;;;6.43;;
33902;SDS011;20194;50.950;5.346;2024-03-06T07:20:19;16.90;;;6.80;;
33902;SDS011;20194;50.950;5.346;2024-03-06T07:22:45;14.35;;;6.75;;
33902;SDS011;20194;50.950;5.346;2024-03-06T07:25:10;14.30;;;7.50;;
33902;SDS011;20194;50.950;5.346;2024-03-06T07:27:36;12.02;;;7.28;;
33902;SDS011;20194;50.950;5.346;2024-03-06T07:30:02;16.20;;;7.65;;
33902;SDS011;20194;50.950;5.346;2024-03-06T07:32:28;16.75;;;7.63;;
33902;SDS011;20194;50.950;5.346;2024-03-06T07:34:54;14.43;;;7.10;;
33902;SDS011;20194;50.950;5.346;2024-03-06T07:37:19;9.65;;;6.63;;
33902;SDS011;20194;50.950;5.346;2024-03-06T07:39:46;11.70;;;6.72;;
33902;SDS011;20194;50.950;5.346;2024-03-06T07:42:12;11.73;;;7.78;;
33902;SDS011;20194;50.950;5.346;2024-03-06T07:44:38;13.52;;;6.68;;
33902;SDS011;20194;50.950;5.346;2024-03-06T07:47:03;14.43;;;6.90;;
33902;SDS011;20194;50.950;5.346;2024-03-06T07:49:29;14.75;;;6.95;;
33902;SDS011;20194;50.950;5.346;2024-03-06T07:51:56;10.18;;;6.78;;
33902;SDS011;20194;50.950;5.346;2024-03-06T07:54:23;10.45;;;5.72;;
33902;SDS011;20194;50.950;5.346;2024-03-06T07:56:48;12.02;;;6.05;;
33902;SDS011;20194;50.950;5.346;2024-03-06T07:59:14;12.18;;;6.35;;
33902;SDS011;20194;50.950;5.346;2024-03-06T08:01:41;14.30;;;6.50;;
33902;SDS011;20194;50.950;5.346;2024-03-06T08:04:07;7.93;;;5.45;;
33902;SDS011;20194;50.950;5.346;2024-03-06T08:06:33;9.75;;;6.00;;
33902;SDS011;20194;50.950;5.346;2024-03-06T08:08:58;14.25;;;5.68;;
33902;SDS011;20194;50.950;5.346;2024-03-06T08:11:24;13.77;;;6.00;;
33902;SDS011;20194;50.950;5.346;2024-03-06T08:13:56;7.07;;;5.05;;
33902;SDS011;20194;50.950;5.346;2024-03-06T08:16:22;8.75;;;5.97;;
33902;SDS011;20194;50.950;5.346;2024-03-06T08:18:48;12.80;;;6.00;;
33902;SDS011;20194;50.950;5.346;2024-03-06T08:21:14;7.95;;;5.35;;
33902;SDS011;20194;50.950;5.346;2024-03-06T08:23:40;9.85;;;5.38;;
33902;SDS011;20194;50.950;5.346;2024-03-06T08:26:05;11.07;;;5.97;;
33902;SDS011;20194;50.950;5.346;2024-03-06T08:28:31;13.88;;;6.13;;
33902;SDS011;20194;50.950;5.346;2024-03-06T08:30:57;10.48;;;5.28;;
33902;SDS011;20194;50.950;5.346;2024-03-06T08:33:23;9.85;;;5.53;;
33902;SDS011;20194;50.950;5.346;2024-03-06T08:35:50;12.63;;;5.60;;
33902;SDS011;20194;50.950;5.346;2024-03-06T08:38:15;8.75;;;5.50;;
33902;SDS011;20194;50.950;5.346;2024-03-06T08:40:42;13.90;;;5.25;;
33902;SDS011;20194;50.950;5.346;2024-03-06T08:43:10;11.15;;;5.32;;
33902;SDS011;20194;50.950;5.346;2024-03-06T08:45:37;10.07;;;5.57;;
33902;SDS011;20194;50.950;5.346;2024-03-06T08:48:03;8.35;;;4.95;;
33902;SDS011;20194;50.950;5.346;2024-03-06T08:50:30;13.70;;;5.25;;
33902;SDS011;20194;50.950;5.346;2024-03-06T08:52:56;10.60;;;5.30;;
33902;SDS011;20194;50.950;5.346;2024-03-06T08:55:22;8.80;;;4.97;;
33902;SDS011;20194;50.950;5.346;2024-03-06T08:57:47;17.48;;;5.50;;
33902;SDS011;20194;50.950;5.346;2024-03-06T09:00:15;8.80;;;5.22;;
33902;SDS011;20194;50.950;5.346;2024-03-06T09:02:42;8.55;;;4.57;;
33902;SDS011;20194;50.950;5.346;2024-03-06T09:05:08;8.18;;;4.22;;
33902;SDS011;20194;50.950;5.346;2024-03-06T09:07:40;11.10;;;5.40;;
33902;SDS011;20194;50.950;5.346;2024-03-06T09:10:06;8.43;;;4.00;;
33902;SDS011;20194;50.950;5.346;2024-03-06T09:12:32;9.15;;;4.05;;
33902;SDS011;20194;50.950;5.346;2024-03-06T09:15:01;8.15;;;4.63;;
33902;SDS011;20194;50.950;5.346;2024-03-06T09:17:27;7.00;;;4.18;;
33902;SDS011;20194;50.950;5.346;2024-03-06T09:19:53;9.57;;;4.32;;
33902;SDS011;20194;50.950;5.346;2024-03-06T09:22:19;7.45;;;4.35;;
33902;SDS011;20194;50.950;5.346;2024-03-06T09:24:45;7.72;;;4.38;;
33902;SDS011;20194;50.950;5.346;2024-03-06T09:27:12;9.13;;;3.80;;
33902;SDS011;20194;50.950;5.346;2024-03-06T09:29:39;8.95;;;4.43;;
33902;SDS011;20194;50.950;5.346;2024-03-06T09:32:05;7.97;;;4.55;;
33902;SDS011;20194;50.950;5.346;2024-03-06T09:34:30;7.15;;;3.80;;
33902;SDS011;20194;50.950;5.346;2024-03-06T09:36:56;8.85;;;3.80;;
33902;SDS011;20194;50.950;5.346;2024-03-06T09:39:22;6.45;;;3.80;;
33902;SDS011;20194;50.950;5.346;2024-03-06T09:41:49;8.73;;;3.65;;
33902;SDS011;20194;50.950;5.346;2024-03-06T09:44:16;10.55;;;4.57;;
33902;SDS011;20194;50.950;5.346;2024-03-06T09:46:46;7.03;;;3.78;;
33902;SDS011;20194;50.950;5.346;2024-03-06T09:49:13;11.43;;;4.15;;
33902;SDS011;20194;50.950;5.346;2024-03-06T09:51:47;7.10;;;4.03;;
33902;SDS011;20194;50.950;5.346;2024-03-06T09:54:18;9.43;;;4.20;;
33902;SDS011;20194;50.950;5.346;2024-03-06T09:56:45;12.70;;;3.97;;
33902;SDS011;20194;50.950;5.346;2024-03-06T09:59:14;12.90;;;4.18;;
33902;SDS011;20194;50.950;5.346;2024-03-06T10:04:22;6.55;;;3.35;;
33902;SDS011;20194;50.950;5.346;2024-03-06T10:06:50;10.43;;;3.90;;
33902;SDS011;20194;50.950;5.346;2024-03-06T10:09:19;10.70;;;3.78;;
33902;SDS011;20194;50.950;5.346;2024-03-06T10:11:46;10.68;;;4.30;;
33902;SDS011;20194;50.950;5.346;2024-03-06T10:14:11;8.35;;;3.72;;
33902;SDS011;20194;50.950;5.346;2024-03-06T10:16:51;7.63;;;3.75;;
33902;SDS011;20194;50.950;5.346;2024-03-06T10:19:26;6.45;;;3.80;;
33902;SDS011;20194;50.950;5.346;2024-03-06T10:21:54;10.80;;;4.35;;
33902;SDS011;20194;50.950;5.346;2024-03-06T10:24:24;11.43;;;4.13;;
33902;SDS011;20194;50.950;5.346;2024-03-06T10:26:51;7.65;;;3.75;;
33902;SDS011;20194;50.950;5.346;2024-03-06T10:29:19;8.52;;;4.70;;
33902;SDS011;20194;50.950;5.346;2024-03-06T10:34:24;9.35;;;3.95;;
33902;SDS011;20194;50.950;5.346;2024-03-06T10:36:53;13.20;;;4.30;;
33902;SDS011;20194;50.950;5.346;2024-03-06T10:39:23;9.57;;;3.90;;
33902;SDS011;20194;50.950;5.346;2024-03-06T10:41:52;7.38;;;3.83;;
33902;SDS011;20194;50.950;5.346;2024-03-06T10:44:25;12.73;;;4.53;;
33902;SDS011;20194;50.950;5.346;2024-03-06T10:46:55;12.63;;;4.25;;
33902;SDS011;20194;50.950;5.346;2024-03-06T10:49:24;8.50;;;3.92;;
33902;SDS011;20194;50.950;5.346;2024-03-06T10:51:52;10.18;;;4.25;;
33902;SDS011;20194;50.950;5.346;2024-03-06T10:54:22;9.02;;;3.90;;
33902;SDS011;20194;50.950;5.346;2024-03-06T10:56:51;10.40;;;4.68;;
33902;SDS011;20194;50.950;5.346;2024-03-06T10:59:18;10.57;;;4.35;;
33902;SDS011;20194;50.950;5.346;2024-03-06T11:01:47;9.55;;;4.78;;
33902;SDS011;20194;50.950;5.346;2024-03-06T11:04:14;6.70;;;4.10;;
33902;SDS011;20194;50.950;5.346;2024-03-06T11:06:41;7.15;;;3.78;;
33902;SDS011;20194;50.950;5.346;2024-03-06T11:09:07;10.63;;;4.13;;
33902;SDS011;20194;50.950;5.346;2024-03-06T11:11:46;10.57;;;4.35;;
33902;SDS011;20194;50.950;5.346;2024-03-06T11:14:15;9.60;;;4.03;;
33902;SDS011;20194;50.950;5.346;2024-03-06T11:16:56;6.70;;;3.83;;
33902;SDS011;20194;50.950;5.346;2024-03-06T11:19:22;9.45;;;4.05;;
33902;SDS011;20194;50.950;5.346;2024-03-06T11:21:49;10.15;;;5.00;;
33902;SDS011;20194;50.950;5.346;2024-03-06T11:24:15;8.93;;;4.03;;
33902;SDS011;20194;50.950;5.346;2024-03-06T11:26:50;8.23;;;4.47;;
33902;SDS011;20194;50.950;5.346;2024-03-06T11:29:22;7.50;;;4.22;;
33902;SDS011;20194;50.950;5.346;2024-03-06T11:32:00;5.50;;;3.83;;
33902;SDS011;20194;50.950;5.346;2024-03-06T11:34:32;10.65;;;3.70;;
33902;SDS011;20194;50.950;5.346;2024-03-06T11:36:59;9.27;;;4.20;;
33902;SDS011;20194;50.950;5.346;2024-03-06T11:39:32;6.47;;;3.63;;
33902;SDS011;20194;50.950;5.346;2024-03-06T11:42:02;14.63;;;4.20;;
33902;SDS011;20194;50.950;5.346;2024-03-06T11:44:33;6.95;;;4.05;;
33902;SDS011;20194;50.950;5.346;2024-03-06T11:47:00;7.75;;;3.45;;
33902;SDS011;20194;50.950;5.346;2024-03-06T11:49:28;7.28;;;3.60;;
33902;SDS011;20194;50.950;5.346;2024-03-06T11:52:02;8.55;;;3.30;;
33902;SDS011;20194;50.950;5.346;2024-03-06T11:54:30;11.75;;;3.75;;
33902;SDS011;20194;50.950;5.346;2024-03-06T11:56:57;7.85;;;3.42;;
33902;SDS011;20194;50.950;5.346;2024-03-06T11:59:25;6.00;;;3.63;;
33902;SDS011;20194;50.950;5.346;2024-03-06T12:01:52;8.13;;;3.33;;
33902;SDS011;20194;50.950;5.346;2024-03-06T12:04:19;7.40;;;3.10;;
33902;SDS011;20194;50.950;5.346;2024-03-06T12:06:49;5.57;;;3.05;;
33902;SDS011;20194;50.950;5.346;2024-03-06T12:09:15;8.88;;;3.75;;
33902;SDS011;20194;50.950;5.346;2024-03-06T12:11:42;9.65;;;3.85;;
33902;SDS011;20194;50.950;5.346;2024-03-06T12:14:14;7.28;;;3.63;;
33902;SDS011;20194;50.950;5.346;2024-03-06T12:17:04;7.20;;;3.40;;
33902;SDS011;20194;50.950;5.346;2024-03-06T12:19:32;8.10;;;2.78;;
33902;SDS011;20194;50.950;5.346;2024-03-06T12:22:00;9.63;;;3.38;;
33902;SDS011;20194;50.950;5.346;2024-03-06T12:24:26;6.82;;;3.30;;
33902;SDS011;20194;50.950;5.346;2024-03-06T12:27:02;6.20;;;3.92;;
33902;SDS011;20194;50.950;5.346;2024-03-06T12:29:32;14.52;;;3.67;;
33902;SDS011;20194;50.950;5.346;2024-03-06T12:31:59;7.53;;;3.40;;
33902;SDS011;20194;50.950;5.346;2024-03-06T12:34:26;9.60;;;4.40;;
33902;SDS011;20194;50.950;5.346;2024-03-06T12:36:52;11.02;;;3.65;;
33902;SDS011;20194;50.950;5.346;2024-03-06T12:39:18;8.57;;;3.50;;
33902;SDS011;20194;50.950;5.346;2024-03-06T12:41:48;7.32;;;3.25;;
33902;SDS011;20194;50.950;5.346;2024-03-06T12:44:15;11.43;;;4.05;;
33902;SDS011;20194;50.950;5.346;2024-03-06T12:46:41;6.13;;;2.70;;
33902;SDS011;20194;50.950;5.346;2024-03-06T12:49:07;4.35;;;2.95;;
33902;SDS011;20194;50.950;5.346;2024-03-06T12:51:33;20.45;;;4.05;;
33902;SDS011;20194;50.950;5.346;2024-03-06T12:53:59;8.48;;;2.53;;
33902;SDS011;20194;50.950;5.346;2024-03-06T12:56:25;4.05;;;2.88;;
33902;SDS011;20194;50.950;5.346;2024-03-06T12:58:51;8.38;;;2.40;;
33902;SDS011;20194;50.950;5.346;2024-03-06T13:01:18;5.97;;;2.35;;
33902;SDS011;20194;50.950;5.346;2024-03-06T13:03:45;13.40;;;3.38;;
33902;SDS011;20194;50.950;5.346;2024-03-06T13:06:10;4.78;;;2.42;;
33902;SDS011;20194;50.950;5.346;2024-03-06T13:08:36;11.65;;;2.92;;
33902;SDS011;20194;50.950;5.346;2024-03-06T13:11:02;7.55;;;3.13;;
33902;SDS011;20194;50.950;5.346;2024-03-06T13:13:28;5.72;;;2.92;;
33902;SDS011;20194;50.950;5.346;2024-03-06T13:15:55;4.82;;;2.55;;
33902;SDS011;20194;50.950;5.346;2024-03-06T13:18:21;10.85;;;3.22;;
33902;SDS011;20194;50.950;5.346;2024-03-06T13:20:47;5.90;;;2.65;;
33902;SDS011;20194;50.950;5.346;2024-03-06T13:23:13;6.00;;;3.28;;
33902;SDS011;20194;50.950;5.346;2024-03-06T13:25:39;9.18;;;2.92;;
33902;SDS011;20194;50.950;5.346;2024-03-06T13:28:05;6.82;;;2.70;;
33902;SDS011;20194;50.950;5.346;2024-03-06T13:30:31;8.15;;;3.00;;
33902;SDS011;20194;50.950;5.346;2024-03-06T13:32:57;5.57;;;2.83;;
33902;SDS011;20194;50.950;5.346;2024-03-06T13:35:23;4.68;;;2.40;;
33902;SDS011;20194;50.950;5.346;2024-03-06T13:37:49;5.30;;;2.80;;
33902;SDS011;20194;50.950;5.346;2024-03-06T13:40:15;5.65;;;3.33;;
33902;SDS011;20194;50.950;5.346;2024-03-06T13:42:41;6.00;;;2.92;;
33902;SDS011;20194;50.950;5.346;2024-03-06T13:45:08;8.18;;;2.80;;
33902;SDS011;20194;50.950;5.346;2024-03-06T13:47:38;4.93;;;2.63;;
33902;SDS011;20194;50.950;5.346;2024-03-06T13:50:06;7.53;;;3.05;;
33902;SDS011;20194;50.950;5.346;2024-03-06T13:52:35;4.43;;;3.00;;
33902;SDS011;20194;50.950;5.346;2024-03-06T13:55:02;5.68;;;2.47;;
33902;SDS011;20194;50.950;5.346;2024-03-06T13:57:29;8.85;;;3.20;;
33902;SDS011;20194;50.950;5.346;2024-03-06T14:00:00;6.00;;;2.60;;
33902;SDS011;20194;50.950;5.346;2024-03-06T14:02:27;7.20;;;2.80;;
33902;SDS011;20194;50.950;5.346;2024-03-06T14:04:52;6.43;;;2.90;;
33902;SDS011;20194;50.950;5.346;2024-03-06T14:07:18;4.93;;;2.30;;
33902;SDS011;20194;50.950;5.346;2024-03-06T14:09:43;6.43;;;2.50;;
33902;SDS011;20194;50.950;5.346;2024-03-06T14:12:09;7.40;;;2.83;;
33902;SDS011;20194;50.950;5.346;2024-03-06T14:14:35;6.35;;;2.47;;
33902;SDS011;20194;50.950;5.346;2024-03-06T14:17:00;4.32;;;2.47;;
33902;SDS011;20194;50.950;5.346;2024-03-06T14:19:26;5.50;;;2.63;;
33902;SDS011;20194;50.950;5.346;2024-03-06T14:21:52;4.75;;;2.15;;
33902;SDS011;20194;50.950;5.346;2024-03-06T14:24:18;6.53;;;2.40;;
33902;SDS011;20194;50.950;5.346;2024-03-06T14:26:45;6.32;;;2.47;;
33902;SDS011;20194;50.950;5.346;2024-03-06T14:29:12;7.00;;;2.65;;
33902;SDS011;20194;50.950;5.346;2024-03-06T14:31:39;3.17;;;2.10;;
33902;SDS011;20194;50.950;5.346;2024-03-06T14:34:05;5.15;;;2.00;;
33902;SDS011;20194;50.950;5.346;2024-03-06T14:36:31;7.90;;;2.35;;
33902;SDS011;20194;50.950;5.346;2024-03-06T14:38:57;6.15;;;2.10;;
33902;SDS011;20194;50.950;5.346;2024-03-06T14:41:23;7.40;;;2.50;;
33902;SDS011;20194;50.950;5.346;2024-03-06T14:43:49;7.82;;;2.90;;
33902;SDS011;20194;50.950;5.346;2024-03-06T14:46:15;6.47;;;2.45;;